Time;durP1;ratioP1;P1;durP2;ratioP2;P2;SDS_P1;SDS_P2;PMS_P1;PMS_P2;Temp;Humidity;BMP_temperature;BMP_pressure;BME280_temperature;BME280_humidity;BME280_pressure;Samples;Min_cycle;Max_cycle;Signal;HPM_P1;HPM_P2
2022/01/06 00:02:37;;;;;;;;;;;;;;;2.58;74.01;99587.84;5594863;31;33308;-82
2022/01/06 00:05:40;;;;;;;;;;;;;;;2.49;75.83;99593.72;5594276;31;33837;-83
2022/01/06 00:08:45;;;;;;;;;;;;;;;2.55;74.26;99582.81;5594129;31;34562;-82
2022/01/06 00:11:48;;;;;;;;;;;;;;;2.52;74.98;99598.72;5594355;31;34692;-82
2022/01/06 00:15:08;;;;;;;;;;;;;;;2.49;75.50;99606.75;5595517;31;33985;-82
2022/01/06 00:18:23;;;;;;;;;;;;;;;2.53;75.00;99613.47;5594746;31;33928;-82
2022/01/06 00:24:47;;;;;;;;;;;;;;;2.52;75.13;99619.63;5600208;31;33852;-82
2022/01/06 00:27:52;;;;;;;;;;;;;;;2.44;75.61;99618.34;5594070;31;34837;-83
2022/01/06 00:30:55;;;;;;;;;;;;;;;2.46;75.45;99616.47;5593259;31;33590;-82
2022/01/06 00:33:59;;;;;;;;;;;;;;;2.32;76.19;99611.34;5594377;31;33869;-82
2022/01/06 00:37:02;;;;;;;;;;;;;;;2.32;77.06;99624.41;5594611;31;34390;-82
2022/01/06 00:40:05;;;;;;;;;;;;;;;2.42;75.60;99622.00;5594115;31;34431;-82
2022/01/06 00:43:12;;;;;;;;;;;;;;;2.40;76.23;99622.13;5596525;31;32420;-82
2022/01/06 00:46:14;;;;;;;;;;;;;;;2.32;75.96;99611.34;5596965;31;33874;-82
2022/01/06 00:49:20;;;;;;;;;;;;;;;2.33;76.80;99597.37;5597566;31;34585;-82
2022/01/06 00:52:22;;;;;;;;;;;;;;;2.37;76.07;99593.62;5596283;31;33884;-82
2022/01/06 00:55:27;;;;;;;;;;;;;;;2.33;76.57;99580.88;5596581;31;34329;-81
2022/01/06 00:58:33;;;;;;;;;;;;;;;2.23;77.21;99565.00;5597128;31;34070;-82
2022/01/06 01:01:35;;;;;;;;;;;;;;;2.18;77.66;99556.69;5596624;31;33230;-82
2022/01/06 01:04:38;;;;;;;;;;;;;;;2.21;78.07;99556.44;5596741;31;33882;-83
2022/01/06 01:07:41;;;;;;;;;;;;;;;2.13;78.28;99538.75;5596394;31;34792;-82
2022/01/06 01:10:43;;;;;;;;;;;;;;;2.09;79.24;99548.53;5596512;31;33435;-82
2022/01/06 01:14:07;;;;;;;;;;;;;;;2.20;79.21;99541.72;5595979;31;33650;-82
2022/01/06 01:17:15;;;;;;;;;;;;;;;2.08;79.27;99536.44;5569231;31;853300;-82
2022/01/06 01:20:26;;;;;;;;;;;;;;;2.16;78.00;99539.34;5596507;31;34299;-82
2022/01/06 01:23:31;;;;;;;;;;;;;;;2.22;76.75;99552.91;5595842;31;33968;-82
2022/01/06 01:26:34;;;;;;;;;;;;;;;2.18;77.92;99572.34;5596162;31;34208;-82
2022/01/06 01:29:45;;;;;;;;;;;;;;;2.12;nan;99563.16;5595591;31;34544;-82
2022/01/06 01:32:51;;;;;;;;;;;;;;;2.15;78.87;99563.78;5595048;31;34364;-82
2022/01/06 01:35:57;;;;;;;;;;;;;;;2.18;77.91;99561.91;5596082;31;34053;-82
2022/01/06 01:38:59;;;;;;;;;;;;;;;2.30;76.43;99581.94;5595806;31;34317;-82
2022/01/06 01:42:02;;;;;;;;;;;;;;;2.20;77.73;99586.94;5596218;31;33640;-82
2022/01/06 01:45:05;;;;;;;;;;;;;;;2.22;77.56;99592.06;5595925;31;33654;-82
2022/01/06 01:48:09;;;;;;;;;;;;;;;2.27;77.36;99597.81;5599567;31;33199;-82
2022/01/06 01:51:13;;;;;;;;;;;;;;;2.19;79.54;99589.69;5596243;31;33898;-82
2022/01/06 01:54:21;;;;;;;;;;;;;;;2.27;77.34;99587.38;5595386;31;34168;-82
2022/01/06 01:57:25;;;;;;;;;;;;;;;2.29;77.40;99575.06;5595504;31;34538;-82
2022/01/06 02:00:29;;;;;;;;;;;;;;;2.10;79.73;99565.84;5596082;31;35464;-82
2022/01/06 02:03:32;;;;;;;;;;;;;;;2.14;78.89;99550.81;5605075;31;34067;-82
2022/01/06 02:06:35;;;;;;;;;;;;;;;2.11;79.15;99562.31;5598061;31;33556;-83
2022/01/06 02:09:37;;;;;;;;;;;;;;;2.15;78.74;99574.22;5595679;31;33580;-82
2022/01/06 02:12:42;;;;;;;;;;;;;;;2.09;79.56;99569.41;5595630;31;33945;-82
2022/01/06 02:15:47;;;;;;;;;;;;;;;2.10;79.26;99575.47;5595375;31;33661;-83
2022/01/06 02:18:51;;;;;;;;;;;;;;;2.13;78.82;99573.47;5595189;31;33932;-83
2022/01/06 02:21:54;;;;;;;;;;;;;;;2.13;79.06;99578.69;5595589;31;33535;-82
2022/01/06 02:24:56;;;;;;;;;;;;;;;2.02;80.23;99591.66;5595846;31;33839;-82
2022/01/06 02:28:04;;;;;;;;;;;;;;;2.06;80.91;99580.06;5596403;31;34550;-83
2022/01/06 02:31:08;;;;;;;;;;;;;;;2.16;79.38;99586.31;5595788;31;33937;-82
2022/01/06 02:34:10;;;;;;;;;;;;;;;2.09;79.50;99585.06;5596320;31;34176;-82
2022/01/06 02:37:13;;;;;;;;;;;;;;;1.99;80.06;99571.81;5600104;31;33625;-82
2022/01/06 02:40:19;;;;;;;;;;;;;;;1.96;80.82;99560.75;5599199;31;34464;-82
2022/01/06 02:43:24;;;;;;;;;;;;;;;1.92;80.22;99554.91;5595459;31;33751;-83
2022/01/06 02:46:27;;;;;;;;;;;;;;;2.00;79.98;99523.06;5596143;31;32599;-82
2022/01/06 02:49:29;;;;;;;;;;;;;;;2.06;80.17;99543.53;5595903;31;33966;-83
2022/01/06 02:52:35;;;;;;;;;;;;;;;2.14;78.85;99541.22;5596201;31;33839;-82
2022/01/06 02:55:39;;;;;;;;;;;;;;;2.11;78.87;99540.59;5595436;31;34123;-82
2022/01/06 02:59:00;;;;;;;;;;;;;;;2.18;78.41;99539.25;5595909;31;36037;-82
2022/01/06 03:02:03;;;;;;;;;;;;;;;2.08;79.60;99561.69;5595672;31;33844;-82
2022/01/06 03:05:06;;;;;;;;;;;;;;;2.08;79.67;99577.34;5594412;31;33723;-82
2022/01/06 03:08:08;;;;;;;;;;;;;;;2.06;79.33;99590.50;5594702;31;34496;-82
2022/01/06 03:11:11;;;;;;;;;;;;;;;2.10;79.25;99602.38;5594708;31;33460;-82
2022/01/06 03:14:13;;;;;;;;;;;;;;;2.13;79.14;99610.00;5595659;31;33906;-82
2022/01/06 03:17:16;;;;;;;;;;;;;;;2.06;79.34;99627.03;5595551;31;34102;-84
2022/01/06 03:20:21;;;;;;;;;;;;;;;2.06;78.87;99621.81;5595434;31;33639;-82
2022/01/06 03:23:23;;;;;;;;;;;;;;;2.10;79.86;99627.66;5595850;31;34308;-82
2022/01/06 03:26:27;;;;;;;;;;;;;;;2.15;78.93;99642.06;5595080;31;34691;-82
2022/01/06 03:29:32;;;;;;;;;;;;;;;2.14;79.36;99635.19;5596454;31;33856;-83
2022/01/06 03:32:35;;;;;;;;;;;;;;;2.16;79.03;99633.31;5595450;31;33657;-82
2022/01/06 03:35:40;;;;;;;;;;;;;;;2.06;79.51;99624.44;5595190;31;33979;-82
2022/01/06 03:38:43;;;;;;;;;;;;;;;1.96;80.64;99624.19;5597890;31;35070;-82
2022/01/06 03:41:46;;;;;;;;;;;;;;;2.00;80.51;99637.88;5601867;31;34773;-82
2022/01/06 03:44:50;;;;;;;;;;;;;;;1.98;80.65;99624.94;5594966;31;33215;-82
2022/01/06 03:47:53;;;;;;;;;;;;;;;2.04;81.15;99617.63;5595110;31;34515;-82
2022/01/06 03:50:55;;;;;;;;;;;;;;;2.00;81.81;99622.22;5594486;31;34572;-82
2022/01/06 03:54:01;;;;;;;;;;;;;;;2.01;81.46;99623.88;5594595;31;34509;-82
2022/01/06 03:57:03;;;;;;;;;;;;;;;1.83;82.89;99632.00;5595254;31;33761;-82
2022/01/06 04:00:10;;;;;;;;;;;;;;;1.75;83.67;99621.22;5595011;31;34330;-82
2022/01/06 04:03:21;;;;;;;;;;;;;;;1.86;82.36;99625.75;5595470;31;33769;-84
2022/01/06 04:06:23;;;;;;;;;;;;;;;1.91;82.38;99628.06;5595059;31;33921;-83
2022/01/06 04:09:26;;;;;;;;;;;;;;;1.80;83.55;99627.00;5597544;31;33515;-83
2022/01/06 04:12:28;;;;;;;;;;;;;;;1.82;83.36;99625.13;5594127;31;34188;-83
2022/01/06 04:15:31;;;;;;;;;;;;;;;1.86;83.21;99625.75;5593813;31;33693;-83
2022/01/06 04:18:34;;;;;;;;;;;;;;;1.88;83.12;99628.25;5596401;31;33860;-83
2022/01/06 04:21:37;;;;;;;;;;;;;;;1.84;83.23;99638.91;5598094;31;34390;-83
2022/01/06 04:24:39;;;;;;;;;;;;;;;1.81;83.85;99628.66;5597769;31;33872;-83
2022/01/06 04:27:45;;;;;;;;;;;;;;;1.83;83.90;99625.94;5597772;31;33906;-83
2022/01/06 04:30:52;;;;;;;;;;;;;;;1.87;82.75;99622.22;5597701;31;34408;-83
2022/01/06 04:33:55;;;;;;;;;;;;;;;1.81;83.39;99641.72;5596261;31;34349;-82
2022/01/06 04:36:59;;;;;;;;;;;;;;;1.82;83.33;99646.00;5597141;31;33513;-82
2022/01/06 04:40:03;;;;;;;;;;;;;;;1.81;83.31;99653.91;5596559;31;33971;-83
2022/01/06 04:43:06;;;;;;;;;;;;;;;1.80;83.70;99657.47;5596493;31;33862;-82
2022/01/06 04:46:11;;;;;;;;;;;;;;;1.76;84.31;99654.19;5596809;31;33735;-82
2022/01/06 04:49:13;;;;;;;;;;;;;;;1.94;83.06;99661.78;5597069;31;33511;-83
2022/01/06 04:52:17;;;;;;;;;;;;;;;1.89;83.01;99676.88;5598924;31;33803;-83
2022/01/06 04:55:20;;;;;;;;;;;;;;;1.87;84.35;99676.13;5597412;31;34249;-83
2022/01/06 04:58:23;;;;;;;;;;;;;;;1.82;84.64;99677.28;5598171;31;33770;-82
2022/01/06 05:01:25;;;;;;;;;;;;;;;1.82;84.34;99681.66;5596869;31;33634;-82
2022/01/06 05:04:28;;;;;;;;;;;;;;;1.75;84.88;99686.44;5596723;31;33348;-82
2022/01/06 05:07:32;;;;;;;;;;;;;;;1.69;85.23;99687.66;5597003;31;33596;-83
2022/01/06 05:10:37;;;;;;;;;;;;;;;1.75;85.18;99701.25;5597689;31;33863;-82
2022/01/06 05:13:39;;;;;;;;;;;;;;;1.71;85.06;99705.84;5600389;31;34175;-82
2022/01/06 05:16:42;;;;;;;;;;;;;;;1.66;85.60;99700.06;5604086;31;34874;-83
2022/01/06 05:19:44;;;;;;;;;;;;;;;1.68;86.43;99706.03;5602039;31;34888;-83
2022/01/06 05:22:51;;;;;;;;;;;;;;;1.70;86.19;99704.16;5596399;31;33965;-83
2022/01/06 05:25:55;;;;;;;;;;;;;;;1.63;86.34;99714.16;5596897;31;33971;-83
2022/01/06 05:28:57;;;;;;;;;;;;;;;1.61;86.62;99718.63;5595265;31;33965;-83
2022/01/06 05:32:00;;;;;;;;;;;;;;;1.59;87.14;99722.28;5596960;31;34083;-84
2022/01/06 05:35:02;;;;;;;;;;;;;;;1.61;86.78;99736.06;5596288;31;34220;-82
2022/01/06 05:38:05;;;;;;;;;;;;;;;1.72;86.16;99728.38;5595933;31;33512;-82
2022/01/06 05:41:10;;;;;;;;;;;;;;;1.75;86.51;99733.38;5595491;31;34581;-82
2022/01/06 05:44:13;;;;;;;;;;;;;;;1.76;85.85;99724.63;5595844;31;33556;-82
2022/01/06 05:47:15;;;;;;;;;;;;;;;1.67;86.44;99730.44;5596122;31;33882;-83
2022/01/06 05:50:18;;;;;;;;;;;;;;;1.72;85.65;99736.22;5595799;31;33572;-83
2022/01/06 05:53:21;;;;;;;;;;;;;;;1.68;85.57;99735.56;5596762;31;33710;-83
2022/01/06 05:56:26;;;;;;;;;;;;;;;1.70;86.39;99730.25;5597705;31;33974;-84
2022/01/06 05:59:32;;;;;;;;;;;;;;;1.67;87.34;99735.66;5598598;31;33962;-84
2022/01/06 06:02:35;;;;;;;;;;;;;;;1.67;86.56;99735.66;5597376;31;34372;-83
2022/01/06 06:05:41;;;;;;;;;;;;;;;1.60;87.31;99729.16;5596418;31;34919;-83
2022/01/06 06:08:43;;;;;;;;;;;;;;;1.76;86.07;99732.44;5598251;31;34139;-84
2022/01/06 06:11:45;;;;;;;;;;;;;;;1.70;86.07;99731.06;5597249;31;33929;-84
2022/01/06 06:14:48;;;;;;;;;;;;;;;1.67;86.70;99735.66;5596978;31;33268;-85
2022/01/06 06:17:53;;;;;;;;;;;;;;;1.63;86.43;99739.41;5599759;31;34183;-85
2022/01/06 06:20:58;;;;;;;;;;;;;;;1.54;87.19;99736.44;5597724;31;33788;-84
2022/01/06 06:24:01;;;;;;;;;;;;;;;1.53;87.43;99739.97;5596380;31;34623;-83
2022/01/06 06:27:03;;;;;;;;;;;;;;;1.45;87.88;99768.28;5596128;31;34588;-84
2022/01/06 06:30:07;;;;;;;;;;;;;;;1.48;88.83;99757.69;5599453;31;33758;-84
2022/01/06 06:33:10;;;;;;;;;;;;;;;1.67;87.20;99766.94;5599660;31;34070;-84
2022/01/06 06:36:13;;;;;;;;;;;;;;;1.59;87.34;99764.00;5597843;31;34005;-83
2022/01/06 06:39:20;;;;;;;;;;;;;;;1.70;87.59;99757.16;5598538;31;34578;-84
2022/01/06 06:42:31;;;;;;;;;;;;;;;1.69;87.53;99771.13;5597285;31;33620;-84
2022/01/06 06:45:33;;;;;;;;;;;;;;;1.65;87.85;99784.44;5597303;31;33883;-83
2022/01/06 06:48:36;;;;;;;;;;;;;;;1.72;86.80;99780.53;5595101;31;33883;-82
2022/01/06 06:51:38;;;;;;;;;;;;;;;1.74;86.85;99785.66;5594022;31;33757;-82
2022/01/06 06:54:44;;;;;;;;;;;;;;;1.80;86.67;99780.06;5594780;31;33700;-82
2022/01/06 06:57:46;;;;;;;;;;;;;;;1.73;88.05;99786.59;5596182;31;33872;-83
2022/01/06 07:00:50;;;;;;;;;;;;;;;1.70;88.06;99780.63;5596328;31;33874;-83
2022/01/06 07:03:52;;;;;;;;;;;;;;;1.69;88.68;99791.16;5595627;31;33876;-82
2022/01/06 07:06:55;;;;;;;;;;;;;;;1.61;89.17;99791.62;5595724;31;33723;-83
2022/01/06 07:10:01;;;;;;;;;;;;;;;1.69;89.18;99802.41;5596115;31;33680;-83
2022/01/06 07:13:16;;;;;;;;;;;;;;;1.77;88.58;99817.59;5597071;31;33835;-82
2022/01/06 07:16:27;;;;;;;;;;;;;;;1.72;89.42;99827.50;5597583;31;32539;-83
2022/01/06 07:19:33;;;;;;;;;;;;;;;1.75;89.15;99826.44;5594904;31;33561;-83
2022/01/06 07:22:36;;;;;;;;;;;;;;;1.90;88.09;99833.31;5594807;31;34110;-82
2022/01/06 07:25:38;;;;;;;;;;;;;;;1.99;88.14;99834.50;5594755;31;33974;-82
2022/01/06 07:28:41;;;;;;;;;;;;;;;2.00;88.02;99838.78;5594857;31;34006;-83
2022/01/06 07:31:54;;;;;;;;;;;;;;;1.99;88.45;99857.97;5594082;31;34191;-82
2022/01/06 07:34:56;;;;;;;;;;;;;;;2.03;87.40;99851.63;5594537;31;34804;-83
2022/01/06 07:37:59;;;;;;;;;;;;;;;2.10;87.08;99852.91;5595253;31;33574;-83
2022/01/06 07:41:02;;;;;;;;;;;;;;;2.13;87.02;99865.78;5597836;31;33291;-82
2022/01/06 07:44:07;;;;;;;;;;;;;;;2.15;86.75;99871.72;5594947;31;33875;-83
2022/01/06 07:47:12;;;;;;;;;;;;;;;2.24;87.53;99859.03;5594642;31;33362;-83
2022/01/06 07:50:15;;;;;;;;;;;;;;;2.38;86.03;99868.56;5594756;31;34109;-82
2022/01/06 07:53:17;;;;;;;;;;;;;;;2.45;86.45;99883.75;5603104;31;34184;-82
2022/01/06 07:56:20;;;;;;;;;;;;;;;2.37;85.80;99891.25;5597467;31;33994;-83
2022/01/06 07:59:23;;;;;;;;;;;;;;;2.50;86.23;99899.09;5597067;31;34448;-83
2022/01/06 08:02:26;;;;;;;;;;;;;;;2.43;86.68;99906.50;5596781;31;34778;-83
2022/01/06 08:05:29;;;;;;;;;;;;;;;2.60;85.92;99913.25;5597671;31;34101;-83
2022/01/06 08:08:31;;;;;;;;;;;;;;;2.72;84.70;99922.06;5597088;31;33652;-82
2022/01/06 08:11:34;;;;;;;;;;;;;;;2.58;85.69;99922.13;5596689;31;33961;-81
2022/01/06 08:14:37;;;;;;;;;;;;;;;2.64;85.40;99919.13;5599186;31;34172;-82
2022/01/06 08:17:40;;;;;;;;;;;;;;;2.57;85.58;99934.34;5599128;31;36193;-82
2022/01/06 08:20:43;;;;;;;;;;;;;;;2.74;84.87;99928.03;5596902;31;34772;-82
2022/01/06 08:23:46;;;;;;;;;;;;;;;2.84;84.71;99937.88;5597515;31;33913;-82
2022/01/06 08:26:50;;;;;;;;;;;;;;;2.85;84.22;99942.19;5596137;31;33985;-82
2022/01/06 08:29:53;;;;;;;;;;;;;;;3.04;83.32;99947.84;5596409;31;33603;-82
2022/01/06 08:32:55;;;;;;;;;;;;;;;3.18;83.02;99949.53;5596707;31;33733;-82
2022/01/06 08:35:58;;;;;;;;;;;;;;;3.29;83.22;99954.06;5595475;31;33885;-82
2022/01/06 08:39:02;;;;;;;;;;;;;;;3.03;83.90;99961.03;5596011;31;34027;-83
2022/01/06 08:42:05;;;;;;;;;;;;;;;3.38;82.56;99950.84;5596134;31;33856;-83
2022/01/06 08:45:09;;;;;;;;;;;;;;;3.14;82.84;99968.16;5597658;31;34001;-82
2022/01/06 08:48:12;;;;;;;;;;;;;;;3.30;83.09;99973.19;5595667;31;34091;-82
2022/01/06 08:51:14;;;;;;;;;;;;;;;3.33;82.85;99979.06;5598505;31;33828;-82
2022/01/06 08:54:17;;;;;;;;;;;;;;;3.48;82.83;99981.59;5600957;31;34445;-82
2022/01/06 08:57:23;;;;;;;;;;;;;;;3.25;82.39;99989.19;5600652;31;34020;-82
2022/01/06 09:00:30;;;;;;;;;;;;;;;3.37;83.53;99991.00;5596125;31;33947;-82
2022/01/06 09:03:36;;;;;;;;;;;;;;;3.33;82.32;99997.34;5602791;31;33583;-83
2022/01/06 09:06:44;;;;;;;;;;;;;;;3.20;83.22;99988.69;5606252;31;36369;-84
2022/01/06 09:09:46;;;;;;;;;;;;;;;3.16;83.15;99992.44;5601417;31;34952;-82
2022/01/06 09:12:49;;;;;;;;;;;;;;;3.07;84.62;99994.72;5597386;31;33766;-82
2022/01/06 09:16:01;;;;;;;;;;;;;;;3.22;82.70;99997.22;5599172;31;34314;-83
2022/01/06 09:19:04;;;;;;;;;;;;;;;3.18;83.43;99995.78;5596309;31;33797;-82
2022/01/06 09:22:06;;;;;;;;;;;;;;;3.41;82.53;100002.09;5595000;31;33669;-82
2022/01/06 09:25:10;;;;;;;;;;;;;;;3.31;83.41;100001.88;5596134;31;33871;-82
2022/01/06 09:28:13;;;;;;;;;;;;;;;3.47;81.76;100011.31;5596013;31;34013;-82
2022/01/06 09:31:15;;;;;;;;;;;;;;;3.51;82.14;100002.31;5596549;31;33688;-85
2022/01/06 09:34:18;;;;;;;;;;;;;;;3.35;81.44;99998.09;5596386;31;33969;-83
2022/01/06 09:37:21;;;;;;;;;;;;;;;3.39;82.67;99991.75;5596078;31;34329;-82
2022/01/06 09:40:23;;;;;;;;;;;;;;;3.47;81.45;99993.00;5595874;31;33851;-82
2022/01/06 09:43:26;;;;;;;;;;;;;;;3.30;81.72;99991.50;5597093;31;34102;-82
2022/01/06 09:46:29;;;;;;;;;;;;;;;3.20;82.56;99989.50;5596861;31;34108;-83
2022/01/06 09:49:35;;;;;;;;;;;;;;;3.15;82.78;99989.00;5596276;31;34450;-82
2022/01/06 09:52:38;;;;;;;;;;;;;;;3.33;82.36;100002.59;5595886;31;33584;-83
2022/01/06 09:55:41;;;;;;;;;;;;;;;3.33;82.45;100007.00;5600331;31;33742;-83
2022/01/06 09:58:43;;;;;;;;;;;;;;;3.32;81.62;100007.94;5597914;31;33796;-82
2022/01/06 10:01:45;;;;;;;;;;;;;;;3.49;81.99;99998.97;5595929;31;34492;-83
2022/01/06 10:04:59;;;;;;;;;;;;;;;3.58;80.58;100008.81;5596227;31;34138;-83
2022/01/06 10:08:01;;;;;;;;;;;;;;;3.85;79.08;100011.31;5596657;31;33783;-83
2022/01/06 10:11:08;;;;;;;;;;;;;;;3.74;79.07;100018.25;5596667;31;33767;-83
2022/01/06 10:14:18;;;;;;;;;;;;;;;4.04;78.12;100028.41;5595836;31;33969;-82
2022/01/06 10:17:30;;;;;;;;;;;;;;;4.14;77.63;100013.72;5596138;31;33805;-82
2022/01/06 10:20:33;;;;;;;;;;;;;;;4.37;77.75;100026.13;5595828;31;33589;-82
2022/01/06 10:23:37;;;;;;;;;;;;;;;4.64;76.72;100016.34;5596460;31;33901;-82
2022/01/06 10:26:51;;;;;;;;;;;;;;;4.80;76.33;100028.31;5595698;31;33949;-82
2022/01/06 10:29:57;;;;;;;;;;;;;;;4.95;75.02;100032.47;5596133;31;34267;-83
2022/01/06 10:33:02;;;;;;;;;;;;;;;5.00;74.73;100039.16;5599945;31;34898;-83
2022/01/06 10:36:08;;;;;;;;;;;;;;;4.97;74.83;100032.34;5601433;31;34000;-83
2022/01/06 10:39:11;;;;;;;;;;;;;;;5.10;74.11;100053.28;5596695;31;34016;-83
2022/01/06 10:42:15;;;;;;;;;;;;;;;5.15;74.49;100048.50;5595664;31;33883;-83
2022/01/06 10:45:22;;;;;;;;;;;;;;;5.28;73.51;100052.84;5595897;31;33797;-83
2022/01/06 10:48:28;;;;;;;;;;;;;;;5.02;75.67;100058.22;5595905;31;35686;-84
2022/01/06 10:51:31;;;;;;;;;;;;;;;5.15;73.86;100053.75;5595227;31;33513;-82
2022/01/06 10:54:35;;;;;;;;;;;;;;;4.86;74.34;100069.81;5596239;31;33247;-82
2022/01/06 10:57:57;;;;;;;;;;;;;;;4.90;74.63;100050.28;5595802;31;34194;-81
2022/01/06 11:01:02;;;;;;;;;;;;;;;4.76;75.63;100050.47;5596004;31;33780;-81
2022/01/06 11:04:05;;;;;;;;;;;;;;;4.93;74.72;100052.69;5595874;31;34305;-84
2022/01/06 11:07:10;;;;;;;;;;;;;;;4.85;74.69;100046.31;5597258;31;34055;-82
2022/01/06 11:10:21;;;;;;;;;;;;;;;4.66;76.30;100057.31;5596547;31;33987;-81
2022/01/06 11:13:52;;;;;;;;;;;;;;;4.86;75.41;100046.22;5595762;31;34517;-82
2022/01/06 11:16:56;;;;;;;;;;;;;;;4.78;75.56;100056.44;5600119;31;33811;-83
2022/01/06 11:19:59;;;;;;;;;;;;;;;4.62;76.83;100052.28;5595456;31;34311;-82
2022/01/06 11:23:01;;;;;;;;;;;;;;;4.72;77.41;100047.22;5595202;31;33790;-82
2022/01/06 11:26:13;;;;;;;;;;;;;;;4.60;76.63;100059.41;5596979;31;34023;-83
2022/01/06 11:29:24;;;;;;;;;;;;;;;4.60;76.89;100062.03;5594789;31;33774;-81
2022/01/06 11:32:27;;;;;;;;;;;;;;;4.72;76.40;100067.34;5597050;31;33882;-81
2022/01/06 11:35:45;;;;;;;;;;;;;;;4.40;77.76;100062.59;5598910;31;34816;-81
2022/01/06 11:38:50;;;;;;;;;;;;;;;4.66;78.10;100075.66;5597005;31;33497;-81
2022/01/06 11:41:53;;;;;;;;;;;;;;;4.97;76.29;100068.22;5595366;31;33706;-81
2022/01/06 11:44:58;;;;;;;;;;;;;;;4.85;76.52;100073.41;5594424;31;33695;-81
2022/01/06 11:48:02;;;;;;;;;;;;;;;4.90;77.21;100070.44;5596134;31;34096;-82
2022/01/06 11:51:05;;;;;;;;;;;;;;;4.79;76.29;100084.31;5595217;31;33495;-82
2022/01/06 11:54:25;;;;;;;;;;;;;;;4.99;75.96;100087.28;5594773;31;33763;-82
2022/01/06 11:57:28;;;;;;;;;;;;;;;4.82;76.70;100083.25;5595389;31;34709;-81
2022/01/06 12:00:30;;;;;;;;;;;;;;;4.80;77.05;100075.50;5594039;31;33426;-82
2022/01/06 12:03:35;;;;;;;;;;;;;;;4.63;77.16;100080.16;5594037;31;33644;-81
2022/01/06 12:06:38;;;;;;;;;;;;;;;4.59;76.26;100086.56;5595883;31;34373;-83
2022/01/06 12:09:43;;;;;;;;;;;;;;;4.61;75.75;100082.06;5595786;31;33502;-81
2022/01/06 12:12:47;;;;;;;;;;;;;;;4.46;75.78;100083.12;5595711;31;33456;-81
2022/01/06 12:15:54;;;;;;;;;;;;;;;4.58;75.94;100076.19;5595893;31;33821;-81
2022/01/06 12:18:58;;;;;;;;;;;;;;;4.57;75.55;100074.50;5594816;31;34083;-81
2022/01/06 12:22:01;;;;;;;;;;;;;;;4.77;75.30;100086.22;5596784;31;33428;-81
2022/01/06 12:25:07;;;;;;;;;;;;;;;4.60;74.56;100079.53;5593777;31;34552;-81
2022/01/06 12:28:12;;;;;;;;;;;;;;;4.71;75.11;100092.72;5588515;31;33910;-81
2022/01/06 12:31:25;;;;;;;;;;;;;;;4.81;74.71;100092.91;5593152;31;34123;-81
2022/01/06 12:34:30;;;;;;;;;;;;;;;4.77;74.54;100091.47;5594752;31;33463;-81
2022/01/06 12:37:33;;;;;;;;;;;;;;;4.77;74.49;100101.94;5594793;31;33503;-81
2022/01/06 12:40:37;;;;;;;;;;;;;;;4.81;75.74;100108.63;5596719;31;34381;-83
2022/01/06 12:43:40;;;;;;;;;;;;;;;4.95;74.28;100120.78;5597467;31;33760;-83
2022/01/06 12:46:43;;;;;;;;;;;;;;;5.12;73.68;100118.72;5597896;31;33928;-82
2022/01/06 12:49:45;;;;;;;;;;;;;;;5.12;73.87;100116.94;5598003;31;34505;-83
2022/01/06 12:52:49;;;;;;;;;;;;;;;5.32;73.63;100122.53;5598364;31;34011;-82
2022/01/06 12:55:52;;;;;;;;;;;;;;;5.12;73.02;100127.44;5596190;31;33591;-82
2022/01/06 12:58:55;;;;;;;;;;;;;;;5.30;73.75;100127.03;5598008;31;33572;-82
2022/01/06 13:01:59;;;;;;;;;;;;;;;5.36;73.33;100119.56;5597033;31;33996;-82
2022/01/06 13:05:03;;;;;;;;;;;;;;;5.20;72.88;100118.97;5596673;31;34807;-82
2022/01/06 13:08:06;;;;;;;;;;;;;;;4.85;75.11;100132.81;5596580;31;33993;-82
2022/01/06 13:11:08;;;;;;;;;;;;;;;5.01;73.98;100140.47;5595865;31;33735;-82
2022/01/06 13:14:11;;;;;;;;;;;;;;;4.81;75.15;100145.31;5596302;31;33121;-82
2022/01/06 13:17:22;;;;;;;;;;;;;;;4.99;74.18;100148.44;5598980;31;33758;-82
2022/01/06 13:20:24;;;;;;;;;;;;;;;5.19;73.21;100148.78;5604358;31;34011;-82
2022/01/06 13:26:50;;;;;;;;;;;;;;;4.78;74.94;100148.19;5597517;31;33979;-82
2022/01/06 13:29:56;;;;;;;;;;;;;;;4.75;74.74;100143.13;5597501;31;33621;-82
2022/01/06 13:32:58;;;;;;;;;;;;;;;4.65;75.21;100145.56;5596700;31;34176;-82
2022/01/06 13:36:03;;;;;;;;;;;;;;;4.62;75.39;100149.22;5596963;31;33806;-82
2022/01/06 13:39:07;;;;;;;;;;;;;;;4.58;75.49;100162.66;5598351;31;34013;-82
2022/01/06 13:42:48;;;;;;;;;;;;;;;4.59;74.72;100156.47;5600065;31;35024;-82
2022/01/06 13:45:54;;;;;;;;;;;;;;;4.64;74.55;100152.59;5519211;32;33930;-82
2022/01/06 13:52:27;;;;;;;;;;;;;;;4.40;73.59;100162.13;5515031;32;33780;-81
2022/01/06 13:55:30;;;;;;;;;;;;;;;4.35;74.05;100169.44;5499996;32;34549;-81
2022/01/06 13:58:34;;;;;;;;;;;;;;;4.37;73.93;100178.91;5498272;32;34165;-82
2022/01/06 14:01:47;;;;;;;;;;;;;;;4.26;74.60;100186.66;5503877;32;33385;-83
2022/01/06 14:04:52;;;;;;;;;;;;;;;4.19;74.98;100194.06;5526114;32;34100;-80
2022/01/06 14:07:54;;;;;;;;;;;;;;;4.14;74.50;100193.53;5525551;32;33918;-82
2022/01/06 14:11:01;;;;;;;;;;;;;;;4.10;75.26;100194.69;5519804;32;34333;-82
2022/01/06 14:14:03;;;;;;;;;;;;;;;4.12;74.30;100195.41;5517434;32;34104;-81
2022/01/06 14:17:07;;;;;;;;;;;;;;;4.13;73.74;100199.72;5518109;32;34035;-81
2022/01/06 14:20:11;;;;;;;;;;;;;;;4.25;73.93;100201.50;5573690;31;33928;-81
2022/01/06 14:23:14;;;;;;;;;;;;;;;4.30;73.37;100199.44;5596907;31;33752;-81
2022/01/06 14:26:17;;;;;;;;;;;;;;;4.40;73.61;100219.75;5596725;31;33976;-82
2022/01/06 14:29:19;;;;;;;;;;;;;;;4.27;72.47;100217.97;5596243;31;34920;-82
2022/01/06 14:32:23;;;;;;;;;;;;;;;4.27;72.72;100214.53;5595353;31;33912;-81
2022/01/06 14:35:28;;;;;;;;;;;;;;;4.16;73.46;100218.69;5595474;31;34107;-81
2022/01/06 14:38:31;;;;;;;;;;;;;;;4.10;73.91;100229.56;5597860;31;34042;-82
2022/01/06 14:41:33;;;;;;;;;;;;;;;4.11;73.04;100227.78;5595746;31;34478;-82
2022/01/06 14:44:38;;;;;;;;;;;;;;;4.16;72.71;100236.16;5595706;31;34272;-81
2022/01/06 14:47:42;;;;;;;;;;;;;;;4.31;72.79;100237.78;5597322;31;34748;-82
2022/01/06 14:50:44;;;;;;;;;;;;;;;4.26;73.44;100250.34;5596152;31;33755;-82
2022/01/06 14:53:47;;;;;;;;;;;;;;;4.23;73.39;100240.06;5598631;31;34002;-82
2022/01/06 14:56:50;;;;;;;;;;;;;;;4.23;74.17;100244.47;5597816;31;34385;-82
2022/01/06 14:59:53;;;;;;;;;;;;;;;4.25;73.89;100243.41;5598611;31;34082;-83
2022/01/06 15:02:56;;;;;;;;;;;;;;;4.15;74.39;100251.06;5595170;31;34109;-82
2022/01/06 15:06:00;;;;;;;;;;;;;;;4.12;74.82;100246.00;5596711;31;33533;-81
2022/01/06 15:09:03;;;;;;;;;;;;;;;4.11;74.95;100252.19;5595095;31;33380;-81
2022/01/06 15:12:06;;;;;;;;;;;;;;;4.04;75.65;100260.53;5595924;31;33900;-81
2022/01/06 15:15:09;;;;;;;;;;;;;;;3.94;76.76;100266.38;5595287;31;32681;-81
2022/01/06 15:18:12;;;;;;;;;;;;;;;3.76;76.92;100268.41;5595396;31;33818;-81
2022/01/06 15:21:29;;;;;;;;;;;;;;;3.73;77.24;100268.59;5595807;31;33140;-82
2022/01/06 15:24:32;;;;;;;;;;;;;;;3.66;78.11;100270.75;5595149;31;34130;-81
2022/01/06 15:27:35;;;;;;;;;;;;;;;3.61;77.76;100280.69;5594094;31;34156;-81
2022/01/06 15:30:38;;;;;;;;;;;;;;;3.53;78.45;100288.19;5596311;31;34542;-81
2022/01/06 15:33:45;;;;;;;;;;;;;;;3.52;79.34;100286.50;5595254;31;34819;-81
2022/01/06 15:36:48;;;;;;;;;;;;;;;3.51;79.24;100290.03;5594900;31;33884;-81
2022/01/06 15:39:50;;;;;;;;;;;;;;;3.44;79.48;100288.72;5595174;31;34096;-82
2022/01/06 15:42:53;;;;;;;;;;;;;;;3.40;79.88;100294.16;5594917;31;33709;-82
2022/01/06 15:45:56;;;;;;;;;;;;;;;3.39;80.30;100302.09;5595943;31;34224;-81
2022/01/06 15:49:02;;;;;;;;;;;;;;;3.43;79.84;100305.37;5595155;31;33628;-81
2022/01/06 15:52:05;;;;;;;;;;;;;;;3.37;79.64;100311.84;5594440;31;33428;-82
2022/01/06 15:55:09;;;;;;;;;;;;;;;3.37;78.38;100317.06;5595939;31;33705;-82
2022/01/06 15:58:18;;;;;;;;;;;;;;;3.50;77.10;100327.59;5595351;31;33887;-82
2022/01/06 16:05:11;;;;;;;;;;;;;;;3.26;78.85;100333.41;5579063;31;34662;-81
2022/01/06 16:08:15;;;;;;;;;;;;;;;3.25;78.12;100342.16;5596024;31;33567;-83
2022/01/06 16:11:20;;;;;;;;;;;;;;;3.19;78.59;100342.56;5595630;31;34426;-81
2022/01/06 16:14:25;;;;;;;;;;;;;;;3.15;78.49;100356.75;5597775;31;33610;-82
2022/01/06 16:17:31;;;;;;;;;;;;;;;3.08;78.82;100359.72;5597580;31;33653;-82
2022/01/06 16:20:38;;;;;;;;;;;;;;;2.98;78.27;100371.66;5597674;31;33987;-82
2022/01/06 16:23:43;;;;;;;;;;;;;;;2.95;77.81;100379.69;5597826;31;34355;-82